sensor_id;sensor_type;location;lat;lon;timestamp;temperature;humidity
60860;DHT22;46694;54.382;9.708;2023-06-14T00:00:45;15.40;99.90
60860;DHT22;46694;54.382;9.708;2023-06-14T00:03:26;15.40;99.90
60860;DHT22;46694;54.382;9.708;2023-06-14T00:06:06;15.40;99.90
60860;DHT22;46694;54.382;9.708;2023-06-14T00:08:45;15.30;99.90
60860;DHT22;46694;54.382;9.708;2023-06-14T00:11:25;15.30;99.90
60860;DHT22;46694;54.382;9.708;2023-06-14T00:14:06;15.30;99.90
60860;DHT22;46694;54.382;9.708;2023-06-14T00:20:32;15.40;99.90
60860;DHT22;46694;54.382;9.708;2023-06-14T00:23:11;15.30;99.90
60860;DHT22;46694;54.382;9.708;2023-06-14T00:25:51;15.30;99.90
60860;DHT22;46694;54.382;9.708;2023-06-14T00:28:30;15.20;99.90
60860;DHT22;46694;54.382;9.708;2023-06-14T00:31:10;15.30;99.90
60860;DHT22;46694;54.382;9.708;2023-06-14T00:33:50;15.20;99.90
60860;DHT22;46694;54.382;9.708;2023-06-14T00:36:29;15.20;99.90
60860;DHT22;46694;54.382;9.708;2023-06-14T00:39:09;15.20;99.90
60860;DHT22;46694;54.382;9.708;2023-06-14T00:41:49;15.20;99.90
60860;DHT22;46694;54.382;9.708;2023-06-14T00:44:28;15.20;99.90
60860;DHT22;46694;54.382;9.708;2023-06-14T00:47:08;15.10;99.90
60860;DHT22;46694;54.382;9.708;2023-06-14T00:49:49;15.10;99.90
60860;DHT22;46694;54.382;9.708;2023-06-14T00:52:30;15.10;99.90
60860;DHT22;46694;54.382;9.708;2023-06-14T00:55:11;15.10;99.90
60860;DHT22;46694;54.382;9.708;2023-06-14T00:57:51;15.00;99.90
60860;DHT22;46694;54.382;9.708;2023-06-14T01:00:31;15.00;99.90
60860;DHT22;46694;54.382;9.708;2023-06-14T01:03:10;15.00;99.90
60860;DHT22;46694;54.382;9.708;2023-06-14T01:05:59;15.00;99.90
60860;DHT22;46694;54.382;9.708;2023-06-14T01:09:17;15.00;99.90
60860;DHT22;46694;54.382;9.708;2023-06-14T01:12:13;15.00;99.90
60860;DHT22;46694;54.382;9.708;2023-06-14T01:14:57;15.00;99.90
60860;DHT22;46694;54.382;9.708;2023-06-14T01:17:39;15.00;99.90
60860;DHT22;46694;54.382;9.708;2023-06-14T01:20:22;15.00;99.90
60860;DHT22;46694;54.382;9.708;2023-06-14T01:23:08;15.00;99.90
60860;DHT22;46694;54.382;9.708;2023-06-14T01:25:49;14.90;99.90
60860;DHT22;46694;54.382;9.708;2023-06-14T01:28:31;14.90;99.90
60860;DHT22;46694;54.382;9.708;2023-06-14T01:31:12;14.90;99.90
60860;DHT22;46694;54.382;9.708;2023-06-14T01:33:55;14.90;99.90
60860;DHT22;46694;54.382;9.708;2023-06-14T01:36:36;14.80;99.90
60860;DHT22;46694;54.382;9.708;2023-06-14T01:39:19;14.90;99.90
60860;DHT22;46694;54.382;9.708;2023-06-14T01:41:59;14.90;99.90
60860;DHT22;46694;54.382;9.708;2023-06-14T01:44:41;14.90;99.90
60860;DHT22;46694;54.382;9.708;2023-06-14T01:47:21;14.80;99.90
60860;DHT22;46694;54.382;9.708;2023-06-14T01:50:05;14.80;99.90
60860;DHT22;46694;54.382;9.708;2023-06-14T01:52:45;14.90;99.90
60860;DHT22;46694;54.382;9.708;2023-06-14T01:55:24;14.90;99.90
60860;DHT22;46694;54.382;9.708;2023-06-14T01:58:04;14.80;99.90
60860;DHT22;46694;54.382;9.708;2023-06-14T02:00:44;14.80;99.90
60860;DHT22;46694;54.382;9.708;2023-06-14T02:03:24;14.80;99.90
60860;DHT22;46694;54.382;9.708;2023-06-14T02:06:04;14.80;99.90
60860;DHT22;46694;54.382;9.708;2023-06-14T02:08:44;14.80;99.90
60860;DHT22;46694;54.382;9.708;2023-06-14T02:11:24;14.80;99.90
60860;DHT22;46694;54.382;9.708;2023-06-14T02:14:04;14.80;99.90
60860;DHT22;46694;54.382;9.708;2023-06-14T02:16:45;14.70;99.90
60860;DHT22;46694;54.382;9.708;2023-06-14T02:19:28;14.70;99.90
60860;DHT22;46694;54.382;9.708;2023-06-14T02:22:07;14.70;99.90
60860;DHT22;46694;54.382;9.708;2023-06-14T02:24:47;14.70;99.90
60860;DHT22;46694;54.382;9.708;2023-06-14T02:27:26;14.80;99.90
60860;DHT22;46694;54.382;9.708;2023-06-14T02:30:06;14.80;99.90
60860;DHT22;46694;54.382;9.708;2023-06-14T02:32:46;14.80;99.90
60860;DHT22;46694;54.382;9.708;2023-06-14T02:35:27;14.80;99.90
60860;DHT22;46694;54.382;9.708;2023-06-14T02:38:06;14.70;99.90
60860;DHT22;46694;54.382;9.708;2023-06-14T02:40:46;14.70;99.90
60860;DHT22;46694;54.382;9.708;2023-06-14T02:43:25;14.70;99.90
60860;DHT22;46694;54.382;9.708;2023-06-14T02:46:06;14.70;99.90
60860;DHT22;46694;54.382;9.708;2023-06-14T02:48:46;14.70;99.90
60860;DHT22;46694;54.382;9.708;2023-06-14T02:51:25;14.70;99.90
60860;DHT22;46694;54.382;9.708;2023-06-14T02:54:05;14.70;99.90
60860;DHT22;46694;54.382;9.708;2023-06-14T02:56:44;14.60;99.90
60860;DHT22;46694;54.382;9.708;2023-06-14T02:59:24;14.70;99.90
60860;DHT22;46694;54.382;9.708;2023-06-14T03:02:04;14.70;99.90
60860;DHT22;46694;54.382;9.708;2023-06-14T03:04:44;14.70;99.90
60860;DHT22;46694;54.382;9.708;2023-06-14T03:07:25;14.70;99.90
60860;DHT22;46694;54.382;9.708;2023-06-14T03:10:08;14.70;99.90
60860;DHT22;46694;54.382;9.708;2023-06-14T03:12:48;14.80;99.90
60860;DHT22;46694;54.382;9.708;2023-06-14T03:15:28;14.80;99.90
60860;DHT22;46694;54.382;9.708;2023-06-14T03:18:08;14.80;99.90
60860;DHT22;46694;54.382;9.708;2023-06-14T03:20:51;14.90;99.90
60860;DHT22;46694;54.382;9.708;2023-06-14T03:23:31;14.90;99.90
60860;DHT22;46694;54.382;9.708;2023-06-14T03:26:11;14.90;99.90
60860;DHT22;46694;54.382;9.708;2023-06-14T03:28:53;14.90;99.90
60860;DHT22;46694;54.382;9.708;2023-06-14T03:31:34;14.90;99.90
60860;DHT22;46694;54.382;9.708;2023-06-14T03:34:14;15.00;99.90
60860;DHT22;46694;54.382;9.708;2023-06-14T03:36:54;15.00;99.90
60860;DHT22;46694;54.382;9.708;2023-06-14T03:39:34;15.00;99.90
60860;DHT22;46694;54.382;9.708;2023-06-14T03:42:15;15.00;99.90
60860;DHT22;46694;54.382;9.708;2023-06-14T03:44:55;15.00;99.90
60860;DHT22;46694;54.382;9.708;2023-06-14T03:47:35;15.10;99.90
60860;DHT22;46694;54.382;9.708;2023-06-14T03:50:14;15.10;99.90
60860;DHT22;46694;54.382;9.708;2023-06-14T03:52:54;15.10;99.90
60860;DHT22;46694;54.382;9.708;2023-06-14T03:55:34;15.20;99.90
60860;DHT22;46694;54.382;9.708;2023-06-14T03:58:14;15.20;99.90
60860;DHT22;46694;54.382;9.708;2023-06-14T04:00:53;15.30;99.90
60860;DHT22;46694;54.382;9.708;2023-06-14T04:03:33;15.40;99.90
60860;DHT22;46694;54.382;9.708;2023-06-14T04:06:12;15.60;99.90
60860;DHT22;46694;54.382;9.708;2023-06-14T04:08:59;15.80;99.90
60860;DHT22;46694;54.382;9.708;2023-06-14T04:11:42;16.10;99.90
60860;DHT22;46694;54.382;9.708;2023-06-14T04:14:22;16.30;99.90
60860;DHT22;46694;54.382;9.708;2023-06-14T04:17:01;16.40;99.90
60860;DHT22;46694;54.382;9.708;2023-06-14T04:19:41;16.60;99.90
60860;DHT22;46694;54.382;9.708;2023-06-14T04:22:21;16.70;99.90
60860;DHT22;46694;54.382;9.708;2023-06-14T04:25:00;16.80;99.90
60860;DHT22;46694;54.382;9.708;2023-06-14T04:27:40;16.80;99.90
60860;DHT22;46694;54.382;9.708;2023-06-14T04:30:20;16.90;99.90
60860;DHT22;46694;54.382;9.708;2023-06-14T04:33:05;16.90;99.90
60860;DHT22;46694;54.382;9.708;2023-06-14T04:35:44;17.00;99.90
60860;DHT22;46694;54.382;9.708;2023-06-14T04:38:26;17.20;99.90
60860;DHT22;46694;54.382;9.708;2023-06-14T04:41:07;17.40;99.90
60860;DHT22;46694;54.382;9.708;2023-06-14T04:43:50;17.60;99.90
60860;DHT22;46694;54.382;9.708;2023-06-14T04:46:32;17.90;99.90
60860;DHT22;46694;54.382;9.708;2023-06-14T04:49:13;18.00;99.90
60860;DHT22;46694;54.382;9.708;2023-06-14T04:51:56;18.10;99.90
60860;DHT22;46694;54.382;9.708;2023-06-14T04:54:40;18.40;99.90
60860;DHT22;46694;54.382;9.708;2023-06-14T04:57:22;18.60;99.90
60860;DHT22;46694;54.382;9.708;2023-06-14T05:00:05;18.80;99.90
60860;DHT22;46694;54.382;9.708;2023-06-14T05:02:45;19.00;99.90
60860;DHT22;46694;54.382;9.708;2023-06-14T05:05:25;19.20;99.90
60860;DHT22;46694;54.382;9.708;2023-06-14T05:08:05;19.20;99.90
60860;DHT22;46694;54.382;9.708;2023-06-14T05:10:44;19.30;99.90
60860;DHT22;46694;54.382;9.708;2023-06-14T05:13:24;19.50;99.90
60860;DHT22;46694;54.382;9.708;2023-06-14T05:16:06;19.70;99.90
60860;DHT22;46694;54.382;9.708;2023-06-14T05:18:46;20.00;99.90
60860;DHT22;46694;54.382;9.708;2023-06-14T05:21:26;20.20;99.90
60860;DHT22;46694;54.382;9.708;2023-06-14T05:24:06;20.40;99.90
60860;DHT22;46694;54.382;9.708;2023-06-14T05:26:46;20.60;99.90
60860;DHT22;46694;54.382;9.708;2023-06-14T05:29:26;20.50;99.90
60860;DHT22;46694;54.382;9.708;2023-06-14T05:32:06;20.50;99.90
60860;DHT22;46694;54.382;9.708;2023-06-14T05:34:46;20.60;99.90
60860;DHT22;46694;54.382;9.708;2023-06-14T05:37:26;20.70;99.90
60860;DHT22;46694;54.382;9.708;2023-06-14T05:40:06;20.80;99.90
60860;DHT22;46694;54.382;9.708;2023-06-14T05:42:46;20.90;99.90
60860;DHT22;46694;54.382;9.708;2023-06-14T05:45:25;21.10;99.90
60860;DHT22;46694;54.382;9.708;2023-06-14T05:48:05;21.20;99.90
60860;DHT22;46694;54.382;9.708;2023-06-14T05:50:45;21.50;99.90
60860;DHT22;46694;54.382;9.708;2023-06-14T05:53:24;21.80;99.90
60860;DHT22;46694;54.382;9.708;2023-06-14T06:00:07;22.40;99.90
60860;DHT22;46694;54.382;9.708;2023-06-14T06:02:50;22.60;99.90
60860;DHT22;46694;54.382;9.708;2023-06-14T06:05:30;22.70;99.90
60860;DHT22;46694;54.382;9.708;2023-06-14T06:08:10;23.00;99.90
60860;DHT22;46694;54.382;9.708;2023-06-14T06:10:49;23.20;99.90
60860;DHT22;46694;54.382;9.708;2023-06-14T06:13:29;23.40;99.90
60860;DHT22;46694;54.382;9.708;2023-06-14T06:16:09;23.50;99.90
60860;DHT22;46694;54.382;9.708;2023-06-14T06:18:48;23.60;99.90
60860;DHT22;46694;54.382;9.708;2023-06-14T06:21:28;23.70;99.90
60860;DHT22;46694;54.382;9.708;2023-06-14T06:24:07;23.80;99.90
60860;DHT22;46694;54.382;9.708;2023-06-14T06:26:47;23.90;99.90
60860;DHT22;46694;54.382;9.708;2023-06-14T06:29:27;24.10;99.90
60860;DHT22;46694;54.382;9.708;2023-06-14T06:32:06;24.30;99.90
60860;DHT22;46694;54.382;9.708;2023-06-14T06:34:46;24.50;99.90
60860;DHT22;46694;54.382;9.708;2023-06-14T06:37:26;24.70;99.90
60860;DHT22;46694;54.382;9.708;2023-06-14T06:40:06;25.00;99.90
60860;DHT22;46694;54.382;9.708;2023-06-14T06:42:47;25.30;99.90
60860;DHT22;46694;54.382;9.708;2023-06-14T06:45:26;25.40;99.90
60860;DHT22;46694;54.382;9.708;2023-06-14T06:48:06;25.40;99.90
60860;DHT22;46694;54.382;9.708;2023-06-14T06:50:45;25.50;99.90
60860;DHT22;46694;54.382;9.708;2023-06-14T06:53:25;25.80;99.90
60860;DHT22;46694;54.382;9.708;2023-06-14T06:56:04;25.90;99.90
60860;DHT22;46694;54.382;9.708;2023-06-14T06:58:44;26.10;99.90
60860;DHT22;46694;54.382;9.708;2023-06-14T07:01:24;26.10;99.90
60860;DHT22;46694;54.382;9.708;2023-06-14T07:04:03;26.20;99.60
60860;DHT22;46694;54.382;9.708;2023-06-14T07:06:43;26.40;99.30
60860;DHT22;46694;54.382;9.708;2023-06-14T07:09:23;26.50;98.60
60860;DHT22;46694;54.382;9.708;2023-06-14T07:12:03;26.60;98.40
60860;DHT22;46694;54.382;9.708;2023-06-14T07:14:44;26.70;98.30
60860;DHT22;46694;54.382;9.708;2023-06-14T07:17:23;26.90;98.40
60860;DHT22;46694;54.382;9.708;2023-06-14T07:20:04;27.20;98.00
60860;DHT22;46694;54.382;9.708;2023-06-14T07:22:50;27.50;97.40
60860;DHT22;46694;54.382;9.708;2023-06-14T07:25:30;27.70;96.40
60860;DHT22;46694;54.382;9.708;2023-06-14T07:28:10;27.80;95.50
60860;DHT22;46694;54.382;9.708;2023-06-14T07:30:49;27.90;95.10
60860;DHT22;46694;54.382;9.708;2023-06-14T07:33:29;27.90;94.60
60860;DHT22;46694;54.382;9.708;2023-06-14T07:36:09;27.80;94.20
60860;DHT22;46694;54.382;9.708;2023-06-14T07:38:48;27.90;94.20
60860;DHT22;46694;54.382;9.708;2023-06-14T07:41:28;28.00;93.50
60860;DHT22;46694;54.382;9.708;2023-06-14T07:44:07;28.10;93.40
60860;DHT22;46694;54.382;9.708;2023-06-14T07:46:47;28.40;93.30
60860;DHT22;46694;54.382;9.708;2023-06-14T07:49:28;28.70;92.80
60860;DHT22;46694;54.382;9.708;2023-06-14T07:52:08;29.00;92.50
60860;DHT22;46694;54.382;9.708;2023-06-14T07:54:47;29.30;91.70
60860;DHT22;46694;54.382;9.708;2023-06-14T07:57:27;29.30;91.60
60860;DHT22;46694;54.382;9.708;2023-06-14T08:00:07;29.20;91.40
60860;DHT22;46694;54.382;9.708;2023-06-14T08:02:49;29.40;91.60
60860;DHT22;46694;54.382;9.708;2023-06-14T08:05:31;29.70;90.90
60860;DHT22;46694;54.382;9.708;2023-06-14T08:08:10;29.70;90.00
60860;DHT22;46694;54.382;9.708;2023-06-14T08:10:50;29.70;89.50
60860;DHT22;46694;54.382;9.708;2023-06-14T08:13:29;29.90;89.60
60860;DHT22;46694;54.382;9.708;2023-06-14T08:16:09;30.10;88.10
60860;DHT22;46694;54.382;9.708;2023-06-14T08:18:50;30.10;87.20
60860;DHT22;46694;54.382;9.708;2023-06-14T08:21:29;30.30;86.00
60860;DHT22;46694;54.382;9.708;2023-06-14T08:24:11;30.30;85.60
60860;DHT22;46694;54.382;9.708;2023-06-14T08:26:51;30.70;85.60
60860;DHT22;46694;54.382;9.708;2023-06-14T08:29:31;31.20;84.80
60860;DHT22;46694;54.382;9.708;2023-06-14T08:35:54;31.70;82.60
60860;DHT22;46694;54.382;9.708;2023-06-14T08:38:33;31.70;80.50
60860;DHT22;46694;54.382;9.708;2023-06-14T08:41:21;31.40;79.00
60860;DHT22;46694;54.382;9.708;2023-06-14T08:44:03;31.30;78.00
60860;DHT22;46694;54.382;9.708;2023-06-14T08:46:44;31.50;78.00
60860;DHT22;46694;54.382;9.708;2023-06-14T08:49:25;31.70;76.70
60860;DHT22;46694;54.382;9.708;2023-06-14T08:52:05;31.80;75.30
60860;DHT22;46694;54.382;9.708;2023-06-14T08:54:47;31.80;74.00
60860;DHT22;46694;54.382;9.708;2023-06-14T08:57:27;31.80;72.80
60860;DHT22;46694;54.382;9.708;2023-06-14T09:00:10;31.80;72.70
60860;DHT22;46694;54.382;9.708;2023-06-14T09:02:52;31.90;72.10
60860;DHT22;46694;54.382;9.708;2023-06-14T09:05:39;32.00;71.40
60860;DHT22;46694;54.382;9.708;2023-06-14T09:08:18;32.20;70.70
60860;DHT22;46694;54.382;9.708;2023-06-14T09:11:02;32.30;69.60
60860;DHT22;46694;54.382;9.708;2023-06-14T09:13:41;32.30;68.10
60860;DHT22;46694;54.382;9.708;2023-06-14T09:16:21;32.30;67.60
60860;DHT22;46694;54.382;9.708;2023-06-14T09:19:01;32.30;66.70
60860;DHT22;46694;54.382;9.708;2023-06-14T09:21:41;32.20;65.90
60860;DHT22;46694;54.382;9.708;2023-06-14T09:24:21;32.00;65.30
60860;DHT22;46694;54.382;9.708;2023-06-14T09:27:01;31.80;65.30
60860;DHT22;46694;54.382;9.708;2023-06-14T09:29:40;31.70;65.20
60860;DHT22;46694;54.382;9.708;2023-06-14T09:32:21;31.60;64.70
60860;DHT22;46694;54.382;9.708;2023-06-14T09:35:00;31.60;64.80
60860;DHT22;46694;54.382;9.708;2023-06-14T09:37:40;31.70;65.00
60860;DHT22;46694;54.382;9.708;2023-06-14T09:40:23;31.80;64.40
60860;DHT22;46694;54.382;9.708;2023-06-14T09:43:07;31.80;64.60
60860;DHT22;46694;54.382;9.708;2023-06-14T09:45:50;31.90;64.60
60860;DHT22;46694;54.382;9.708;2023-06-14T09:48:30;32.10;63.90
60860;DHT22;46694;54.382;9.708;2023-06-14T09:51:10;32.10;63.10
60860;DHT22;46694;54.382;9.708;2023-06-14T09:53:59;32.20;62.30
60860;DHT22;46694;54.382;9.708;2023-06-14T09:56:47;32.20;61.70
60860;DHT22;46694;54.382;9.708;2023-06-14T09:59:31;32.20;61.40
60860;DHT22;46694;54.382;9.708;2023-06-14T10:02:35;32.00;60.90
60860;DHT22;46694;54.382;9.708;2023-06-14T10:05:17;31.70;61.10
60860;DHT22;46694;54.382;9.708;2023-06-14T10:08:01;31.60;61.40
60860;DHT22;46694;54.382;9.708;2023-06-14T10:10:47;31.50;61.30
60860;DHT22;46694;54.382;9.708;2023-06-14T10:13:28;31.30;61.00
60860;DHT22;46694;54.382;9.708;2023-06-14T10:16:27;31.20;61.50
60860;DHT22;46694;54.382;9.708;2023-06-14T10:19:23;31.50;61.50
60860;DHT22;46694;54.382;9.708;2023-06-14T10:22:11;31.50;60.70
60860;DHT22;46694;54.382;9.708;2023-06-14T10:24:53;31.50;60.40
60860;DHT22;46694;54.382;9.708;2023-06-14T10:27:32;31.50;60.00
60860;DHT22;46694;54.382;9.708;2023-06-14T10:30:14;31.40;60.10
60860;DHT22;46694;54.382;9.708;2023-06-14T10:33:05;31.50;59.90
60860;DHT22;46694;54.382;9.708;2023-06-14T10:35:46;31.70;59.80
60860;DHT22;46694;54.382;9.708;2023-06-14T10:38:30;31.60;59.10
60860;DHT22;46694;54.382;9.708;2023-06-14T10:41:11;31.40;58.90
60860;DHT22;46694;54.382;9.708;2023-06-14T10:43:51;30.90;58.90
60860;DHT22;46694;54.382;9.708;2023-06-14T10:46:30;30.80;59.10
60860;DHT22;46694;54.382;9.708;2023-06-14T10:49:10;30.50;58.70
60860;DHT22;46694;54.382;9.708;2023-06-14T10:51:50;30.40;58.40
60860;DHT22;46694;54.382;9.708;2023-06-14T10:54:30;30.30;58.40
60860;DHT22;46694;54.382;9.708;2023-06-14T10:57:10;30.20;58.60
60860;DHT22;46694;54.382;9.708;2023-06-14T10:59:49;30.20;58.60
60860;DHT22;46694;54.382;9.708;2023-06-14T11:05:56;29.80;59.20
60860;DHT22;46694;54.382;9.708;2023-06-14T11:12:17;29.50;59.30
60860;DHT22;46694;54.382;9.708;2023-06-14T11:14:56;29.40;59.60
60860;DHT22;46694;54.382;9.708;2023-06-14T11:17:36;29.40;59.70
60860;DHT22;46694;54.382;9.708;2023-06-14T11:20:16;29.20;59.70
60860;DHT22;46694;54.382;9.708;2023-06-14T11:22:57;29.00;60.50
60860;DHT22;46694;54.382;9.708;2023-06-14T11:25:37;29.10;60.80
60860;DHT22;46694;54.382;9.708;2023-06-14T11:28:16;29.20;60.30
60860;DHT22;46694;54.382;9.708;2023-06-14T11:31:03;29.30;59.60
60860;DHT22;46694;54.382;9.708;2023-06-14T11:33:49;29.10;59.10
60860;DHT22;46694;54.382;9.708;2023-06-14T11:36:30;29.00;59.00
60860;DHT22;46694;54.382;9.708;2023-06-14T11:39:10;28.90;59.10
60860;DHT22;46694;54.382;9.708;2023-06-14T11:41:50;29.00;59.20
60860;DHT22;46694;54.382;9.708;2023-06-14T11:44:31;29.10;59.30
60860;DHT22;46694;54.382;9.708;2023-06-14T11:47:11;29.10;58.80
60860;DHT22;46694;54.382;9.708;2023-06-14T11:49:50;28.90;58.70
60860;DHT22;46694;54.382;9.708;2023-06-14T11:52:31;28.90;58.30
60860;DHT22;46694;54.382;9.708;2023-06-14T11:55:11;29.00;58.60
60860;DHT22;46694;54.382;9.708;2023-06-14T11:57:53;29.20;58.90
60860;DHT22;46694;54.382;9.708;2023-06-14T12:00:35;29.30;58.50
60860;DHT22;46694;54.382;9.708;2023-06-14T12:03:16;29.30;58.20
60860;DHT22;46694;54.382;9.708;2023-06-14T12:06:05;29.20;58.20
60860;DHT22;46694;54.382;9.708;2023-06-14T12:08:48;29.20;58.30
60860;DHT22;46694;54.382;9.708;2023-06-14T12:11:34;29.10;58.50
60860;DHT22;46694;54.382;9.708;2023-06-14T12:14:14;29.20;58.50
60860;DHT22;46694;54.382;9.708;2023-06-14T12:17:04;29.30;58.30
60860;DHT22;46694;54.382;9.708;2023-06-14T12:19:49;29.40;57.70
60860;DHT22;46694;54.382;9.708;2023-06-14T12:22:29;29.20;57.50
60860;DHT22;46694;54.382;9.708;2023-06-14T12:25:09;29.20;57.50
60860;DHT22;46694;54.382;9.708;2023-06-14T12:27:51;29.20;57.50
60860;DHT22;46694;54.382;9.708;2023-06-14T12:30:30;29.10;57.40
60860;DHT22;46694;54.382;9.708;2023-06-14T12:33:10;28.90;57.20
60860;DHT22;46694;54.382;9.708;2023-06-14T12:35:51;28.70;57.20
60860;DHT22;46694;54.382;9.708;2023-06-14T12:38:33;28.70;57.30
60860;DHT22;46694;54.382;9.708;2023-06-14T12:41:12;28.90;57.60
60860;DHT22;46694;54.382;9.708;2023-06-14T12:43:53;29.10;57.20
60860;DHT22;46694;54.382;9.708;2023-06-14T12:46:33;29.00;56.60
60860;DHT22;46694;54.382;9.708;2023-06-14T12:49:14;28.90;56.80
60860;DHT22;46694;54.382;9.708;2023-06-14T12:51:53;28.90;56.70
60860;DHT22;46694;54.382;9.708;2023-06-14T12:54:33;28.60;56.50
60860;DHT22;46694;54.382;9.708;2023-06-14T12:57:12;28.40;56.60
60860;DHT22;46694;54.382;9.708;2023-06-14T12:59:52;28.20;56.80
60860;DHT22;46694;54.382;9.708;2023-06-14T13:02:32;28.00;56.90
60860;DHT22;46694;54.382;9.708;2023-06-14T13:05:11;27.80;57.00
60860;DHT22;46694;54.382;9.708;2023-06-14T13:07:51;27.70;57.10
60860;DHT22;46694;54.382;9.708;2023-06-14T13:10:31;27.70;57.20
60860;DHT22;46694;54.382;9.708;2023-06-14T13:13:10;27.90;57.30
60860;DHT22;46694;54.382;9.708;2023-06-14T13:15:51;28.00;57.10
60860;DHT22;46694;54.382;9.708;2023-06-14T13:18:31;28.00;56.70
60860;DHT22;46694;54.382;9.708;2023-06-14T13:21:10;28.10;56.60
60860;DHT22;46694;54.382;9.708;2023-06-14T13:23:50;28.10;56.30
60860;DHT22;46694;54.382;9.708;2023-06-14T13:26:29;28.20;56.10
60860;DHT22;46694;54.382;9.708;2023-06-14T13:29:09;28.20;55.50
60860;DHT22;46694;54.382;9.708;2023-06-14T13:31:49;28.20;55.00
60860;DHT22;46694;54.382;9.708;2023-06-14T13:34:28;28.20;54.50
60860;DHT22;46694;54.382;9.708;2023-06-14T13:37:08;28.10;54.10
60860;DHT22;46694;54.382;9.708;2023-06-14T13:39:47;28.00;54.10
60860;DHT22;46694;54.382;9.708;2023-06-14T13:42:28;28.00;54.90
60860;DHT22;46694;54.382;9.708;2023-06-14T13:45:11;28.00;54.30
60860;DHT22;46694;54.382;9.708;2023-06-14T13:47:51;28.10;54.00
60860;DHT22;46694;54.382;9.708;2023-06-14T13:50:31;28.00;53.80
60860;DHT22;46694;54.382;9.708;2023-06-14T13:53:10;28.10;53.40
60860;DHT22;46694;54.382;9.708;2023-06-14T13:55:50;28.00;53.10
60860;DHT22;46694;54.382;9.708;2023-06-14T13:58:29;27.90;53.30
60860;DHT22;46694;54.382;9.708;2023-06-14T14:01:09;27.90;53.50
60860;DHT22;46694;54.382;9.708;2023-06-14T14:03:49;27.80;53.70
60860;DHT22;46694;54.382;9.708;2023-06-14T14:06:28;27.70;53.70
60860;DHT22;46694;54.382;9.708;2023-06-14T14:09:08;27.60;53.90
60860;DHT22;46694;54.382;9.708;2023-06-14T14:11:48;27.60;54.10
60860;DHT22;46694;54.382;9.708;2023-06-14T14:14:28;27.60;54.20
60860;DHT22;46694;54.382;9.708;2023-06-14T14:17:07;27.60;54.00
60860;DHT22;46694;54.382;9.708;2023-06-14T14:19:47;27.50;53.90
60860;DHT22;46694;54.382;9.708;2023-06-14T14:22:26;27.40;54.10
60860;DHT22;46694;54.382;9.708;2023-06-14T14:25:06;27.30;54.60
60860;DHT22;46694;54.382;9.708;2023-06-14T14:27:45;27.20;54.80
60860;DHT22;46694;54.382;9.708;2023-06-14T14:30:25;27.10;54.90
60860;DHT22;46694;54.382;9.708;2023-06-14T14:33:05;27.10;55.10
60860;DHT22;46694;54.382;9.708;2023-06-14T14:35:46;27.10;54.80
60860;DHT22;46694;54.382;9.708;2023-06-14T14:38:26;27.10;54.70
60860;DHT22;46694;54.382;9.708;2023-06-14T14:41:05;27.00;54.80
60860;DHT22;46694;54.382;9.708;2023-06-14T14:43:45;26.90;54.90
60860;DHT22;46694;54.382;9.708;2023-06-14T14:46:24;26.90;55.00
60860;DHT22;46694;54.382;9.708;2023-06-14T14:49:04;26.80;55.10
60860;DHT22;46694;54.382;9.708;2023-06-14T14:51:43;26.70;55.30
60860;DHT22;46694;54.382;9.708;2023-06-14T14:54:23;26.60;55.40
60860;DHT22;46694;54.382;9.708;2023-06-14T14:57:04;26.60;55.60
60860;DHT22;46694;54.382;9.708;2023-06-14T14:59:45;26.60;55.70
60860;DHT22;46694;54.382;9.708;2023-06-14T15:02:25;26.50;55.80
60860;DHT22;46694;54.382;9.708;2023-06-14T15:05:05;26.40;55.90
60860;DHT22;46694;54.382;9.708;2023-06-14T15:07:45;26.40;56.00
60860;DHT22;46694;54.382;9.708;2023-06-14T15:10:24;26.40;56.30
60860;DHT22;46694;54.382;9.708;2023-06-14T15:13:04;26.40;56.30
60860;DHT22;46694;54.382;9.708;2023-06-14T15:15:43;26.30;56.00
60860;DHT22;46694;54.382;9.708;2023-06-14T15:18:23;26.20;56.10
60860;DHT22;46694;54.382;9.708;2023-06-14T15:21:03;26.10;56.00
60860;DHT22;46694;54.382;9.708;2023-06-14T15:23:42;26.10;55.90
60860;DHT22;46694;54.382;9.708;2023-06-14T15:26:22;26.10;55.90
60860;DHT22;46694;54.382;9.708;2023-06-14T15:29:03;26.00;55.80
60860;DHT22;46694;54.382;9.708;2023-06-14T15:31:43;25.80;55.60
60860;DHT22;46694;54.382;9.708;2023-06-14T15:34:22;25.80;55.70
60860;DHT22;46694;54.382;9.708;2023-06-14T15:37:02;25.80;55.60
60860;DHT22;46694;54.382;9.708;2023-06-14T15:39:41;25.70;55.80
60860;DHT22;46694;54.382;9.708;2023-06-14T15:42:21;25.70;56.10
60860;DHT22;46694;54.382;9.708;2023-06-14T15:45:00;25.70;56.10
60860;DHT22;46694;54.382;9.708;2023-06-14T15:47:40;25.60;55.60
60860;DHT22;46694;54.382;9.708;2023-06-14T15:50:19;25.50;54.90
60860;DHT22;46694;54.382;9.708;2023-06-14T15:53:00;25.50;54.70
60860;DHT22;46694;54.382;9.708;2023-06-14T15:55:39;25.50;55.20
60860;DHT22;46694;54.382;9.708;2023-06-14T15:58:19;25.40;55.70
60860;DHT22;46694;54.382;9.708;2023-06-14T16:00:58;25.40;55.80
60860;DHT22;46694;54.382;9.708;2023-06-14T16:03:38;25.30;55.80
60860;DHT22;46694;54.382;9.708;2023-06-14T16:06:18;25.20;55.80
60860;DHT22;46694;54.382;9.708;2023-06-14T16:08:57;25.10;56.00
60860;DHT22;46694;54.382;9.708;2023-06-14T16:11:37;25.00;56.30
60860;DHT22;46694;54.382;9.708;2023-06-14T16:14:16;25.00;56.60
60860;DHT22;46694;54.382;9.708;2023-06-14T16:16:56;24.90;57.00
60860;DHT22;46694;54.382;9.708;2023-06-14T16:19:36;25.00;57.30
60860;DHT22;46694;54.382;9.708;2023-06-14T16:22:16;24.90;57.30
60860;DHT22;46694;54.382;9.708;2023-06-14T16:24:55;24.80;57.50
60860;DHT22;46694;54.382;9.708;2023-06-14T16:27:35;24.70;57.60
60860;DHT22;46694;54.382;9.708;2023-06-14T16:30:15;24.50;57.80
60860;DHT22;46694;54.382;9.708;2023-06-14T16:32:55;24.40;58.10
60860;DHT22;46694;54.382;9.708;2023-06-14T16:35:34;24.30;58.30
60860;DHT22;46694;54.382;9.708;2023-06-14T16:38:14;24.40;58.70
60860;DHT22;46694;54.382;9.708;2023-06-14T16:40:53;24.30;58.90
60860;DHT22;46694;54.382;9.708;2023-06-14T16:43:33;24.30;59.30
60860;DHT22;46694;54.382;9.708;2023-06-14T16:46:14;24.20;59.60
60860;DHT22;46694;54.382;9.708;2023-06-14T16:48:53;24.10;59.80
60860;DHT22;46694;54.382;9.708;2023-06-14T16:51:32;24.00;60.20
60860;DHT22;46694;54.382;9.708;2023-06-14T16:54:11;23.90;60.60
60860;DHT22;46694;54.382;9.708;2023-06-14T16:56:51;23.90;61.00
60860;DHT22;46694;54.382;9.708;2023-06-14T16:59:31;23.90;61.70
60860;DHT22;46694;54.382;9.708;2023-06-14T17:02:10;23.90;62.10
60860;DHT22;46694;54.382;9.708;2023-06-14T17:04:50;23.80;62.50
60860;DHT22;46694;54.382;9.708;2023-06-14T17:07:29;23.70;62.70
60860;DHT22;46694;54.382;9.708;2023-06-14T17:10:09;23.60;62.80
60860;DHT22;46694;54.382;9.708;2023-06-14T17:12:48;23.60;63.10